Time;durP1;ratioP1;P1;durP2;ratioP2;P2;SDS_P1;SDS_P2;PMS_P1;PMS_P2;Temp;Humidity;BMP_temperature;BMP_pressure;BME280_temperature;BME280_humidity;BME280_pressure;Samples;Min_cycle;Max_cycle;Signal;HPM_P1;HPM_P2
2023/04/01 00:01:46;;;;;;;7.68;1.60;;;;;;;9.22;100.00;99302.38;5204196;28;20033;-85
2023/04/01 00:04:16;;;;;;;9.10;1.52;;;;;;;9.21;100.00;99320.28;5204992;28;20029;-85
2023/04/01 00:06:47;;;;;;;6.65;1.83;;;;;;;9.18;100.00;99309.94;5205233;28;20079;-84
2023/04/01 00:09:18;;;;;;;8.80;1.80;;;;;;;9.16;100.00;99317.34;5203987;28;20052;-84
2023/04/01 00:11:48;;;;;;;10.27;2.60;;;;;;;9.19;100.00;99316.16;5202704;28;20033;-84
2023/04/01 00:14:19;;;;;;;10.70;1.70;;;;;;;9.16;100.00;99319.19;5203197;28;20037;-84
2023/04/01 00:16:49;;;;;;;8.27;1.55;;;;;;;9.16;100.00;99322.69;5201812;28;20021;-84
2023/04/01 00:19:20;;;;;;;8.23;1.80;;;;;;;9.13;100.00;99327.59;5195356;28;20117;-84
2023/04/01 00:21:52;;;;;;;9.10;1.45;;;;;;;9.13;100.00;99327.59;5202611;28;20025;-85
2023/04/01 00:24:22;;;;;;;10.35;1.60;;;;;;;9.14;100.00;99322.09;5206034;28;20033;-85
2023/04/01 00:26:53;;;;;;;7.20;1.88;;;;;;;9.14;100.00;99324.75;5196907;28;20379;-85
2023/04/01 00:29:28;;;;;;;6.78;1.60;;;;;;;9.15;100.00;99329.09;5205704;28;20496;-86
2023/04/01 00:31:58;;;;;;;7.27;1.77;;;;;;;9.15;100.00;99331.75;5206290;28;20034;-84
2023/04/01 00:34:28;;;;;;;11.32;1.98;;;;;;;9.15;100.00;99329.09;5204409;28;20790;-85
2023/04/01 00:37:00;;;;;;;11.38;2.00;;;;;;;9.13;100.00;99333.78;5204407;28;20033;-85
2023/04/01 00:39:31;;;;;;;13.43;1.70;;;;;;;9.13;100.00;99332.97;5204548;28;20068;-85
2023/04/01 00:42:04;;;;;;;18.45;1.70;;;;;;;9.14;100.00;99335.47;5205303;28;20072;-85
2023/04/01 00:44:34;;;;;;;11.95;2.05;;;;;;;9.14;100.00;99345.34;5205266;28;20021;-85
2023/04/01 00:47:05;;;;;;;10.50;3.53;;;;;;;9.12;100.00;99331.31;5203544;28;20079;-85
2023/04/01 00:49:40;;;;;;;10.40;2.10;;;;;;;9.14;100.00;99345.34;5201065;28;20032;-85
2023/04/01 00:52:12;;;;;;;;;;;;;;;9.14;100.00;99340.00;5216191;28;20056;-84
2023/04/01 00:54:46;;;;;;;19.00;4.07;;;;;;;9.17;100.00;99360.97;5195262;28;19960;-86
2023/04/01 00:57:23;;;;;;;10.88;2.15;;;;;;;9.15;100.00;99338.97;5205233;28;20030;-87
2023/04/01 00:59:55;;;;;;;10.10;2.30;;;;;;;9.16;100.00;99353.97;5205610;28;20533;-85
2023/04/01 01:02:26;;;;;;;11.45;2.63;;;;;;;9.16;100.00;99345.97;5205943;28;20742;-85
2023/04/01 01:04:57;;;;;;;12.57;2.30;;;;;;;9.15;100.00;99350.50;5205883;28;20033;-85
2023/04/01 01:07:54;;;;;;;9.15;2.10;;;;;;;9.19;100.00;99350.94;5205882;28;20036;-86
2023/04/01 01:10:32;;;;;;;12.00;2.57;;;;;;;9.16;100.00;99343.28;5205547;28;20025;-85
2023/04/01 01:13:25;;;;;;;7.80;1.90;;;;;;;9.16;100.00;99346.78;5205274;28;20037;-85
2023/04/01 01:16:25;;;;;;;6.75;2.30;;;;;;;9.16;100.00;99351.31;5206153;28;20025;-85
2023/04/01 01:19:19;;;;;;;14.15;3.20;;;;;;;9.15;100.00;99350.50;5199309;28;20026;-85
2023/04/01 01:22:10;;;;;;;10.07;2.53;;;;;;;9.17;100.00;99356.47;5205467;28;20021;-86
2023/04/01 01:25:00;;;;;;;15.52;4.30;;;;;;;9.16;100.00;99353.97;5205467;28;20068;-85
2023/04/01 01:27:32;;;;;;;13.27;3.20;;;;;;;9.15;100.00;99349.66;5197092;28;20022;-85
2023/04/01 01:30:37;;;;;;;10.73;2.50;;;;;;;9.13;100.00;99359.72;5206475;28;20075;-84
2023/04/01 01:33:32;;;;;;;11.93;3.05;;;;;;;9.14;100.00;99356.03;5222834;28;20183;-85
2023/04/01 01:36:10;;;;;;;13.95;3.55;;;;;;;9.13;100.00;99355.19;5205402;28;20407;-85
2023/04/01 01:38:41;;;;;;;13.70;4.25;;;;;;;9.14;100.00;99361.38;5205212;28;20056;-85
2023/04/01 01:41:15;;;;;;;8.75;3.10;;;;;;;9.16;100.00;99354.81;5205306;28;20075;-86
2023/04/01 01:43:48;;;;;;;8.55;3.67;;;;;;;9.16;100.00;99367.38;5206059;28;20034;-85
2023/04/01 01:46:24;;;;;;;7.75;3.53;;;;;;;9.16;100.00;99367.38;5205745;28;20079;-85
2023/04/01 01:48:56;;;;;;;11.57;3.78;;;;;;;9.16;100.00;99370.03;5205830;28;20033;-85
2023/04/01 01:51:27;;;;;;;13.35;3.88;;;;;;;9.12;100.00;99366.09;5220650;28;20483;-85
2023/04/01 01:53:58;;;;;;;8.50;3.50;;;;;;;9.12;100.00;99368.75;5205562;28;20075;-85
2023/04/01 01:56:30;;;;;;;12.80;4.72;;;;;;;9.08;100.00;99377.16;5203592;28;20053;-85
2023/04/01 01:59:15;;;;;;;17.77;5.57;;;;;;;9.13;100.00;99376.59;5205454;28;20494;-85
2023/04/01 02:01:54;;;;;;;10.60;4.78;;;;;;;9.14;100.00;99385.47;5204604;28;20029;-85
2023/04/01 02:04:25;;;;;;;12.07;5.35;;;;;;;9.14;100.00;99385.47;5204158;28;20017;-85
2023/04/01 02:07:02;;;;;;;8.98;4.93;;;;;;;9.14;100.00;99385.47;5204053;28;20026;-86
2023/04/01 02:09:34;;;;;;;13.00;5.90;;;;;;;9.13;100.00;99389.97;5205568;28;20029;-85
2023/04/01 02:12:08;;;;;;;13.98;5.18;;;;;;;9.10;100.00;99390.38;5207125;28;20363;-84
2023/04/01 02:15:01;;;;;;;13.75;5.82;;;;;;;9.12;100.00;99398.19;5207540;28;20029;-84
2023/04/01 02:17:33;;;;;;;8.77;4.70;;;;;;;9.10;100.00;99402.91;5201631;28;20108;-83
2023/04/01 02:20:08;;;;;;;13.93;4.40;;;;;;;9.11;100.00;99402.72;5203196;28;20021;-83
2023/04/01 02:22:42;;;;;;;11.45;4.32;;;;;;;9.09;100.00;99412.78;5207677;28;20028;-83
2023/04/01 02:25:22;;;;;;;12.05;4.60;;;;;;;9.10;100.00;99410.94;5204550;28;20041;-83
2023/04/01 02:27:54;;;;;;;;;;;;;;;9.06;100.00;99413.16;5202684;28;20136;-84
2023/04/01 02:30:28;;;;;;;15.32;5.90;;;;;;;9.03;100.00;99414.38;5207067;28;19991;-83
2023/04/01 02:32:59;;;;;;;12.10;4.55;;;;;;;9.03;100.00;99414.38;5206373;28;20490;-84
2023/04/01 02:35:30;;;;;;;13.35;5.22;;;;;;;9.05;100.00;99423.03;5207336;28;20025;-83
2023/04/01 02:38:01;;;;;;;13.05;4.57;;;;;;;9.05;100.00;99424.91;5206178;28;20021;-83
2023/04/01 02:40:42;;;;;;;11.63;5.00;;;;;;;9.03;100.00;99422.38;5206538;28;20018;-84
2023/04/01 02:43:13;;;;;;;11.68;4.93;;;;;;;9.00;100.00;99420.13;5222841;28;20033;-83
2023/04/01 02:45:44;;;;;;;12.70;5.45;;;;;;;8.96;100.00;99428.72;5206734;28;20488;-83
2023/04/01 02:48:14;;;;;;;14.85;5.00;;;;;;;8.97;100.00;99433.03;5206477;28;20120;-83
2023/04/01 02:50:45;;;;;;;11.25;4.80;;;;;;;8.94;100.00;99426.22;5205953;28;20501;-84
2023/04/01 02:53:16;;;;;;;16.85;4.85;;;;;;;8.94;100.00;99430.75;5194807;28;20634;-83
2023/04/01 02:55:50;;;;;;;11.95;4.68;;;;;;;8.93;100.00;99440.59;5202730;28;20032;-83
2023/04/01 02:58:20;;;;;;;14.85;4.80;;;;;;;8.91;100.00;99431.94;5206055;28;20071;-84
2023/04/01 03:00:51;;;;;;;9.73;3.63;;;;;;;8.92;100.00;99432.78;5206746;28;20053;-83
2023/04/01 03:03:21;;;;;;;9.43;4.45;;;;;;;8.90;100.00;99434.81;5206892;28;20024;-84
2023/04/01 03:05:55;;;;;;;14.60;5.25;;;;;;;8.90;100.00;99440.16;5207389;28;20034;-84
2023/04/01 03:08:25;;;;;;;13.98;4.30;;;;;;;8.89;100.00;99450.03;5206749;28;20025;-84
2023/04/01 03:10:56;;;;;;;11.00;3.92;;;;;;;8.89;100.00;99444.69;5207464;28;20035;-84
2023/04/01 03:13:26;;;;;;;11.07;3.90;;;;;;;8.88;100.00;99453.72;5207147;28;20025;-84
2023/04/01 03:15:57;;;;;;;10.75;5.13;;;;;;;8.88;100.00;99455.56;5207053;28;20120;-84
2023/04/01 03:18:27;;;;;;;8.65;3.30;;;;;;;8.89;100.00;99465.25;5199455;28;20018;-84
2023/04/01 03:21:13;;;;;;;8.23;4.03;;;;;;;8.85;100.00;99464.81;5207966;28;20490;-84
2023/04/01 03:23:43;;;;;;;15.85;4.43;;;;;;;8.85;100.00;99462.13;5195190;28;20394;-84
2023/04/01 03:26:14;;;;;;;9.88;4.50;;;;;;;8.87;100.00;99475.31;5198126;28;20021;-84
2023/04/01 03:28:45;;;;;;;12.68;4.30;;;;;;;8.85;100.00;99472.00;5207430;28;20024;-84
2023/04/01 03:31:15;;;;;;;12.82;4.35;;;;;;;8.85;100.00;99474.69;5206996;28;20021;-84
2023/04/01 03:33:46;;;;;;;10.32;3.72;;;;;;;8.87;100.00;99484.16;5208217;28;20216;-84
2023/04/01 03:36:17;;;;;;;8.57;3.30;;;;;;;8.86;100.00;99482.50;5207212;28;20025;-84
2023/04/01 03:38:48;;;;;;;10.52;3.75;;;;;;;8.86;100.00;99485.19;5206562;28;20029;-84
2023/04/01 03:41:18;;;;;;;11.57;4.78;;;;;;;8.86;100.00;99487.03;5206824;28;20051;-84
2023/04/01 03:43:49;;;;;;;12.10;4.57;;;;;;;8.85;100.00;99490.72;5207602;28;20021;-84
2023/04/01 03:46:20;;;;;;;11.82;5.05;;;;;;;8.84;100.00;99484.53;5207845;28;20029;-84
2023/04/01 03:48:50;;;;;;;12.45;5.45;;;;;;;8.90;100.00;99488.31;5207214;28;20100;-84
2023/04/01 03:51:21;;;;;;;15.52;5.78;;;;;;;8.86;100.00;99497.72;5206374;28;20112;-83
2023/04/01 03:53:51;;;;;;;11.98;6.50;;;;;;;8.83;100.00;99498.91;5205387;28;20025;-84
2023/04/01 03:56:22;;;;;;;13.65;6.35;;;;;;;8.81;100.00;99495.59;5203873;28;20026;-84
2023/04/01 03:58:52;;;;;;;14.55;6.95;;;;;;;8.79;100.00;99498.47;5206024;28;20554;-83
2023/04/01 04:01:23;;;;;;;13.80;7.35;;;;;;;8.81;100.00;99504.47;5205799;28;20026;-83
2023/04/01 04:03:54;;;;;;;12.38;6.40;;;;;;;8.80;100.00;99510.00;5206004;28;20018;-84
2023/04/01 04:06:28;;;;;;;11.57;4.88;;;;;;;8.77;100.00;99508.50;5208924;28;20079;-84
2023/04/01 04:08:59;;;;;;;10.38;5.13;;;;;;;8.77;100.00;99524.56;5208793;28;20033;-83
2023/04/01 04:11:31;;;;;;;10.93;5.22;;;;;;;8.75;100.00;99518.59;5209275;28;20029;-84
2023/04/01 04:14:02;;;;;;;15.00;5.95;;;;;;;8.75;100.00;99523.94;5225527;28;20018;-84
2023/04/01 04:16:36;;;;;;;10.18;5.38;;;;;;;8.77;100.00;99529.09;5209654;28;20140;-84
2023/04/01 04:19:06;;;;;;;9.75;4.80;;;;;;;8.74;100.00;99526.81;5201359;28;20389;-82
2023/04/01 04:21:37;;;;;;;12.02;5.63;;;;;;;8.73;100.00;99531.28;5207403;28;20113;-83
2023/04/01 04:24:08;;;;;;;15.18;5.60;;;;;;;8.70;100.00;99531.69;5208761;28;20029;-84
2023/04/01 04:26:38;;;;;;;11.45;6.10;;;;;;;8.72;100.00;99532.31;5198821;28;20026;-82
2023/04/01 04:29:09;;;;;;;11.15;5.45;;;;;;;8.69;100.00;99535.38;5212418;28;20049;-83
2023/04/01 04:31:39;;;;;;;14.63;6.55;;;;;;;8.73;100.00;99538.50;5209067;28;20393;-85
2023/04/01 04:34:10;;;;;;;11.80;6.75;;;;;;;8.74;100.00;99534.81;5207657;28;20026;-85
2023/04/01 04:36:40;;;;;;;15.38;7.20;;;;;;;8.75;100.00;99541.81;5205885;28;20081;-85
2023/04/01 04:39:11;;;;;;;15.40;6.25;;;;;;;8.73;100.00;99538.50;5208913;28;20028;-84
2023/04/01 04:41:41;;;;;;;19.75;8.35;;;;;;;8.74;100.00;99542.84;5210773;28;20129;-85
2023/04/01 04:44:12;;;;;;;15.40;7.35;;;;;;;8.77;100.00;99548.63;5210481;28;20025;-87
2023/04/01 04:46:42;;;;;;;19.33;9.23;;;;;;;8.77;100.00;99556.66;5207236;28;20524;-84
2023/04/01 04:49:13;;;;;;;19.48;8.70;;;;;;;8.79;100.00;99556.47;5209602;28;20025;-83
2023/04/01 04:51:43;;;;;;;19.63;9.73;;;;;;;8.75;100.00;99564.03;5205651;28;20128;-82
2023/04/01 04:54:14;;;;;;;22.15;10.05;;;;;;;8.74;100.00;99557.03;5192930;28;20033;-81
2023/04/01 04:56:45;;;;;;;20.65;9.23;;;;;;;8.74;100.00;99557.03;5206046;28;20029;-82
2023/04/01 04:59:15;;;;;;;17.45;9.70;;;;;;;8.73;100.00;99559.88;5206243;28;20022;-82
2023/04/01 05:01:46;;;;;;;22.73;11.75;;;;;;;8.74;100.00;99574.94;5205923;28;20026;-80
2023/04/01 05:04:16;;;;;;;23.00;9.73;;;;;;;8.74;100.00;99578.44;5205905;28;20029;-81
2023/04/01 05:06:47;;;;;;;22.52;10.40;;;;;;;8.74;100.00;99575.75;5205923;28;20032;-81
2023/04/01 05:09:17;;;;;;;25.75;11.82;;;;;;;8.73;100.00;99578.59;5206689;28;20021;-81
2023/04/01 05:11:48;;;;;;;26.60;11.77;;;;;;;8.73;100.00;99576.75;5206180;28;20033;-81
2023/04/01 05:14:18;;;;;;;27.55;12.20;;;;;;;8.71;100.00;99581.47;5206713;28;20021;-80
2023/04/01 05:16:50;;;;;;;22.63;12.52;;;;;;;8.72;100.00;99591.13;5205308;28;20021;-81
2023/04/01 05:19:21;;;;;;;24.77;12.82;;;;;;;8.73;100.00;99595.47;5199084;28;20037;-80
2023/04/01 05:21:52;;;;;;;26.55;13.38;;;;;;;8.71;100.00;99589.47;5206251;28;20479;-80
2023/04/01 05:24:23;;;;;;;24.25;12.73;;;;;;;8.71;100.00;99597.50;5206539;28;20037;-80
2023/04/01 05:26:53;;;;;;;30.73;14.20;;;;;;;8.67;100.00;99606.91;5197860;28;20021;-80
2023/04/01 05:29:25;;;;;;;26.23;13.23;;;;;;;8.73;100.00;99608.00;5205898;28;20036;-81
2023/04/01 05:31:56;;;;;;;26.63;13.38;;;;;;;8.70;100.00;99616.41;5206787;28;20030;-81
2023/04/01 05:34:26;;;;;;;29.17;13.23;;;;;;;8.67;100.00;99622.13;5202537;28;20486;-81
2023/04/01 05:36:57;;;;;;;25.98;13.52;;;;;;;8.70;100.00;99619.91;5197119;28;20025;-81
2023/04/01 05:39:28;;;;;;;26.73;13.43;;;;;;;8.70;100.00;99619.91;5205277;28;20025;-81
2023/04/01 05:41:58;;;;;;;29.85;14.85;;;;;;;8.72;100.00;99625.91;5205085;28;20018;-80
2023/04/01 05:44:29;;;;;;;25.30;13.95;;;;;;;8.72;100.00;99630.41;5205284;28;20032;-80
2023/04/01 05:46:59;;;;;;;31.42;15.35;;;;;;;8.69;100.00;99631.63;5204654;28;20514;-80
2023/04/01 05:49:30;;;;;;;29.13;13.65;;;;;;;8.70;100.00;99638.63;5205144;28;20152;-82
2023/04/01 05:52:01;;;;;;;29.10;11.63;;;;;;;8.70;100.00;99641.31;5204629;28;20022;-81
2023/04/01 05:54:32;;;;;;;25.30;10.35;;;;;;;8.73;100.00;99646.25;5208843;28;20028;-82
2023/04/01 05:57:03;;;;;;;19.25;10.35;;;;;;;8.70;100.00;99643.16;5203706;28;20029;-81
2023/04/01 05:59:34;;;;;;;22.20;10.57;;;;;;;8.70;100.00;99645.81;5205515;28;20535;-81
2023/04/01 06:02:05;;;;;;;18.63;9.38;;;;;;;8.69;100.00;99641.50;5205150;28;20030;-82
2023/04/01 06:04:40;;;;;;;14.55;8.10;;;;;;;8.67;100.00;99660.38;5204618;28;20029;-83
2023/04/01 06:07:15;;;;;;;17.70;8.27;;;;;;;8.68;100.00;99670.06;5204465;28;20394;-82
2023/04/01 06:09:45;;;;;;;;;;;;;;;8.69;100.00;99671.75;5206130;28;20017;-81
2023/04/01 06:12:40;;;;;;;24.98;11.40;;;;;;;8.72;100.00;99670.53;5207236;28;19913;-83
2023/04/01 06:15:17;;;;;;;24.45;11.68;;;;;;;8.72;100.00;99676.69;5202944;28;20032;-82
2023/04/01 06:18:23;;;;;;;19.35;11.18;;;;;;;8.73;100.00;99675.69;5196890;28;20437;-82
2023/04/01 06:21:12;;;;;;;;;;;;;;;8.75;100.00;99686.22;5195752;28;20029;-84
2023/04/01 06:24:17;;;;;;;15.38;9.40;;;;;;;8.75;100.00;99686.22;5203275;28;20008;-82
2023/04/01 06:26:49;;;;;;;12.25;7.10;;;;;;;8.71;100.00;99695.59;5195871;28;20025;-82
2023/04/01 06:29:56;;;;;;;12.15;6.82;;;;;;;8.66;100.00;99696.16;5203021;28;20037;-82
2023/04/01 06:32:46;;;;;;;9.50;5.97;;;;;;;8.63;100.00;99696.50;5203154;28;20034;-82
2023/04/01 06:35:51;;;;;;;9.98;6.22;;;;;;;8.63;100.00;99701.84;5203076;28;20120;-81
2023/04/01 06:38:41;;;;;;;13.90;7.03;;;;;;;8.68;100.00;99709.34;5203385;28;20061;-80
2023/04/01 06:41:23;;;;;;;9.65;6.15;;;;;;;8.71;100.00;99708.97;5203274;28;20033;-83
2023/04/01 06:44:18;;;;;;;8.25;5.38;;;;;;;8.68;100.00;99720.03;5218387;28;20148;-82
2023/04/01 06:46:59;;;;;;;9.77;5.80;;;;;;;8.69;100.00;99717.19;5202648;28;20032;-82
2023/04/01 06:49:49;;;;;;;6.47;4.40;;;;;;;8.68;100.00;99720.03;5200342;28;20075;-81
2023/04/01 06:52:34;;;;;;;7.13;4.95;;;;;;;8.67;100.00;99721.88;5216119;28;20034;-81
2023/04/01 06:55:24;;;;;;;6.40;4.27;;;;;;;8.68;100.00;99730.72;5195107;28;20108;-81
2023/04/01 06:57:58;;;;;;;8.77;5.07;;;;;;;8.69;100.00;99732.41;5192139;28;20279;-80
2023/04/01 07:00:32;;;;;;;10.15;4.82;;;;;;;8.67;100.00;99732.56;5203665;28;20053;-79
2023/04/01 07:03:24;;;;;;;9.10;4.50;;;;;;;8.65;100.00;99737.28;5203324;28;20026;-83
2023/04/01 07:06:00;;;;;;;5.30;4.03;;;;;;;8.65;100.00;99739.13;5218245;28;20037;-83
2023/04/01 07:08:36;;;;;;;7.93;4.40;;;;;;;8.63;100.00;99749.97;5203687;28;20478;-83
2023/04/01 07:11:10;;;;;;;7.65;4.88;;;;;;;8.66;100.00;99743.44;5203383;28;20060;-82
2023/04/01 07:13:52;;;;;;;5.93;4.30;;;;;;;8.71;100.00;99749.91;5202645;28;20037;-81
2023/04/01 07:16:45;;;;;;;7.53;4.90;;;;;;;8.74;100.00;99757.59;5202746;28;20021;-81
2023/04/01 07:19:49;;;;;;;7.53;5.20;;;;;;;8.72;100.00;99756.91;5196960;28;20028;-82
2023/04/01 07:22:35;;;;;;;7.30;4.60;;;;;;;8.75;100.00;99764.59;5203053;28;20517;-81
2023/04/01 07:25:12;;;;;;;;;;;;;;;8.74;100.00;99768.28;5205629;28;20025;-83
2023/04/01 07:27:44;;;;;;;5.88;4.53;;;;;;;8.75;100.00;99766.44;5196940;28;19917;-82
2023/04/01 07:30:18;;;;;;;7.05;4.25;;;;;;;8.77;100.00;99765.22;5203071;28;20033;-81
2023/04/01 07:33:14;;;;;;;16.08;5.03;;;;;;;8.78;100.00;99782.09;5193421;28;20438;-82
2023/04/01 07:35:56;;;;;;;8.68;4.63;;;;;;;8.80;100.00;99777.44;5197307;28;20063;-82
2023/04/01 07:38:46;;;;;;;7.75;4.78;;;;;;;8.79;100.00;99789.97;5203695;28;20371;-81
2023/04/01 07:41:32;;;;;;;7.78;5.07;;;;;;;8.84;100.00;99788.59;5203436;28;20049;-82
2023/04/01 07:44:16;;;;;;;8.68;5.35;;;;;;;8.86;100.00;99786.56;5203577;28;20025;-82
2023/04/01 07:47:09;;;;;;;7.07;4.90;;;;;;;8.89;100.00;99803.09;5202732;28;20452;-82
2023/04/01 07:50:18;;;;;;;8.63;5.25;;;;;;;8.90;100.00;99803.91;5193663;28;20482;-81
2023/04/01 07:53:27;;;;;;;8.85;5.43;;;;;;;8.93;100.00;99811.56;5198691;28;20044;-82
2023/04/01 07:56:23;;;;;;;9.27;5.55;;;;;;;8.93;100.00;99812.38;5224891;28;20037;-81
2023/04/01 07:59:01;;;;;;;7.95;5.28;;;;;;;8.96;100.00;99804.00;5204818;28;20120;-81
2023/04/01 08:01:58;;;;;;;8.70;5.70;;;;;;;8.98;100.00;99812.69;5219206;28;20105;-81
2023/04/01 08:04:56;;;;;;;9.00;5.72;;;;;;;9.02;100.00;99829.22;5215985;28;21300;-81
2023/04/01 08:07:51;;;;;;;11.50;6.35;;;;;;;8.99;100.00;99822.41;5196133;28;20026;-80
2023/04/01 08:10:33;;;;;;;8.63;5.95;;;;;;;9.06;100.00;99833.19;5209132;28;20057;-80
2023/04/01 08:13:21;;;;;;;7.53;5.20;;;;;;;9.05;100.00;99829.69;5208024;28;20039;-81
2023/04/01 08:16:10;;;;;;;11.35;6.30;;;;;;;9.07;100.00;99846.38;5208072;28;20040;-82
2023/04/01 08:19:07;;;;;;;9.23;6.07;;;;;;;9.07;100.00;99841.03;5201197;28;20033;-81
2023/04/01 08:21:58;;;;;;;7.38;5.45;;;;;;;9.12;100.00;99850.38;5208447;28;20109;-81
2023/04/01 08:24:39;;;;;;;11.10;6.30;;;;;;;9.15;100.00;99852.69;5208704;28;20024;-80
2023/04/01 08:27:20;;;;;;;10.23;6.05;;;;;;;9.16;100.00;99851.66;5200197;28;20029;-80
2023/04/01 08:30:21;;;;;;;10.82;6.40;;;;;;;9.18;100.00;99855.81;5207833;28;20486;-79
2023/04/01 08:32:58;;;;;;;9.50;5.38;;;;;;;9.20;100.00;99858.31;5207110;28;20500;-82
2023/04/01 08:35:36;;;;;;;7.93;5.70;;;;;;;9.25;100.00;99863.97;5207863;28;20017;-81
2023/04/01 08:38:14;;;;;;;8.80;5.68;;;;;;;9.20;100.00;99871.72;5205504;28;20536;-81
2023/04/01 08:41:03;;;;;;;6.70;4.43;;;;;;;9.18;100.00;99877.22;5207981;28;20424;-81
2023/04/01 08:43:54;;;;;;;8.98;4.90;;;;;;;9.22;100.00;99875.84;5208601;28;20029;-82
2023/04/01 08:46:40;;;;;;;8.60;5.43;;;;;;;9.21;100.00;99866.16;5205931;28;20017;-82
2023/04/01 08:49:30;;;;;;;8.15;5.53;;;;;;;9.25;100.00;99880.03;5206115;28;20037;-80
2023/04/01 08:52:31;;;;;;;9.95;5.97;;;;;;;9.23;100.00;99888.22;5203751;28;20044;-80
2023/04/01 08:55:32;;;;;;;8.27;5.85;;;;;;;9.22;100.00;99889.22;5196695;28;20155;-79
2023/04/01 08:58:19;;;;;;;8.85;5.50;;;;;;;9.24;100.00;99895.25;5194577;28;20036;-81
2023/04/01 09:00:55;;;;;;;8.15;5.60;;;;;;;9.28;100.00;99898.38;5204505;28;20033;-80
2023/04/01 09:04:01;;;;;;;6.93;5.30;;;;;;;9.36;100.00;99894.81;5204792;28;20028;-81
2023/04/01 09:06:33;;;;;;;7.38;4.65;;;;;;;9.42;100.00;99902.94;5202043;28;20041;-80
2023/04/01 09:09:24;;;;;;;11.88;4.93;;;;;;;9.48;100.00;99904.88;5204401;28;20037;-80
2023/04/01 09:12:32;;;;;;;6.78;4.72;;;;;;;9.52;100.00;99908.03;5205452;28;20120;-81
2023/04/01 09:15:37;;;;;;;6.90;4.55;;;;;;;9.49;100.00;99890.50;5204977;28;20033;-80
2023/04/01 09:18:08;;;;;;;8.50;4.40;;;;;;;9.54;100.00;99912.22;5197601;28;20030;-80
2023/04/01 09:21:13;;;;;;;4.80;3.70;;;;;;;9.59;100.00;99911.66;5204693;28;20037;-80
2023/04/01 09:24:14;;;;;;;5.53;3.90;;;;;;;9.57;100.00;99914.50;5199545;28;20037;-80
2023/04/01 09:27:05;;;;;;;5.22;3.60;;;;;;;9.62;100.00;99905.09;5199732;28;20109;-80
2023/04/01 09:29:54;;;;;;;6.97;4.00;;;;;;;9.63;100.00;99910.25;5213902;28;20030;-81
2023/04/01 09:33:02;;;;;;;4.63;3.13;;;;;;;9.64;100.00;99913.78;5205174;28;20982;-79
2023/04/01 09:36:02;;;;;;;4.90;3.33;;;;;;;9.68;100.00;99915.06;5201295;28;20040;-80
2023/04/01 09:39:10;;;;;;;5.07;3.10;;;;;;;9.73;100.00;99918.84;5196649;28;20497;-80
2023/04/01 09:42:15;;;;;;;4.75;3.10;;;;;;;9.71;100.00;99915.53;5193541;28;20033;-80
2023/04/01 09:44:58;;;;;;;3.72;2.80;;;;;;;9.72;100.00;99927.09;5203343;28;20045;-80
2023/04/01 09:47:45;;;;;;;3.75;2.80;;;;;;;9.72;100.00;99927.91;5204159;28;20525;-80
2023/04/01 09:50:27;;;;;;;4.57;2.90;;;;;;;9.72;100.00;99935.94;5203914;28;20496;-81
2023/04/01 09:53:15;;;;;;;3.50;2.20;;;;;;;9.76;100.00;99931.06;5191718;28;20038;-81
2023/04/01 09:56:07;;;;;;;3.55;2.42;;;;;;;9.83;100.00;99935.50;5202208;28;20029;-81
2023/04/01 09:58:37;;;;;;;4.63;2.70;;;;;;;9.92;100.00;99930.88;5204718;28;20083;-79
2023/04/01 10:01:38;;;;;;;4.78;3.45;;;;;;;9.98;100.00;99943.53;5204060;28;20029;-80
2023/04/01 10:04:46;;;;;;;3.53;2.63;;;;;;;9.96;100.00;99942.91;5205062;28;20120;-78
2023/04/01 10:07:40;;;;;;;3.92;2.75;;;;;;;9.98;100.00;99948.06;5205283;28;20179;-79
2023/04/01 10:10:48;;;;;;;3.65;2.40;;;;;;;9.97;100.00;99946.41;5204263;28;20033;-81
2023/04/01 10:13:54;;;;;;;3.00;2.63;;;;;;;9.93;100.00;99945.94;5204573;28;20032;-81
2023/04/01 10:16:37;;;;;;;3.70;3.20;;;;;;;9.99;100.00;99952.41;5204279;28;20070;-81
2023/04/01 10:19:28;;;;;;;8.90;3.20;;;;;;;10.14;100.00;99955.94;5197333;28;20030;-81
2023/04/01 10:22:18;;;;;;;4.47;3.22;;;;;;;10.24;100.00;99961.03;5204643;28;20025;-80
2023/04/01 10:25:09;;;;;;;4.05;3.35;;;;;;;10.25;100.00;99960.88;5202904;28;20044;-81
2023/04/01 10:27:59;;;;;;;4.93;3.58;;;;;;;10.22;100.00;99960.38;5195443;28;20379;-82
2023/04/01 10:30:40;;;;;;;3.92;3.33;;;;;;;10.20;100.00;99962.41;5203746;28;20389;-81
2023/04/01 10:33:22;;;;;;;4.88;3.30;;;;;;;10.14;100.00;99964.00;5203173;28;20088;-79
2023/04/01 10:36:12;;;;;;;8.40;3.40;;;;;;;10.22;100.00;99969.25;5200825;28;20083;-79
2023/04/01 10:39:29;;;;;;;3.78;3.38;;;;;;;10.17;100.00;99976.19;5203561;28;20026;-80
2023/04/01 10:42:37;;;;;;;4.85;4.00;;;;;;;10.00;100.00;99968.31;5218741;28;20508;-79
2023/04/01 10:45:34;;;;;;;5.88;4.20;;;;;;;9.96;100.00;99975.06;5202574;28;20029;-79
2023/04/01 10:48:17;;;;;;;7.32;4.88;;;;;;;9.92;100.00;99979.13;5201488;28;20116;-76
2023/04/01 10:51:25;;;;;;;4.60;3.63;;;;;;;9.98;100.00;99985.59;5201948;28;20021;-78
2023/04/01 10:54:16;;;;;;;6.00;3.80;;;;;;;10.04;100.00;99980.34;5189715;28;20743;-80
2023/04/01 10:56:52;;;;;;;4.70;3.35;;;;;;;10.16;100.00;99990.59;5202141;28;20030;-78
2023/04/01 10:59:41;;;;;;;6.25;2.85;;;;;;;10.15;100.00;99983.59;5201961;28;20032;-78
2023/04/01 11:02:40;;;;;;;5.43;2.58;;;;;;;10.15;100.00;99991.63;5202064;28;20030;-79
2023/04/01 11:05:37;;;;;;;2.90;1.95;;;;;;;10.17;100.00;99989.56;5201446;28;20451;-81
2023/04/01 11:08:45;;;;;;;3.00;1.75;;;;;;;10.13;100.00;99989.94;5201847;28;20029;-77
2023/04/01 11:11:46;;;;;;;2.15;1.77;;;;;;;10.29;100.00;99994.34;5193541;28;20586;-81
2023/04/01 11:14:36;;;;;;;2.53;1.50;;;;;;;10.51;100.00;100003.28;5202124;28;20021;-78
2023/04/01 11:17:37;;;;;;;3.83;1.48;;;;;;;10.66;100.00;99997.91;5196427;28;20490;-78
2023/04/01 11:20:47;;;;;;;2.17;1.60;;;;;;;10.69;100.00;99997.50;5190524;28;20517;-78
2023/04/01 11:23:42;;;;;;;2.65;1.80;;;;;;;10.63;100.00;100001.78;5201505;28;20484;-78
2023/04/01 11:26:38;;;;;;;4.47;3.58;;;;;;;10.45;100.00;100009.41;5200726;28;20029;-79
2023/04/01 11:29:22;;;;;;;9.00;3.97;;;;;;;10.36;100.00;100016.69;5210122;28;20029;-78
2023/04/01 11:32:29;;;;;;;4.25;3.15;;;;;;;10.29;100.00;100014.94;5188495;28;20095;-81
2023/04/01 11:35:09;;;;;;;5.53;3.08;;;;;;;10.23;100.00;100021.84;5203748;28;20049;-80
2023/04/01 11:38:14;;;;;;;5.50;3.88;;;;;;;10.24;100.00;100026.22;5203155;28;20025;-80
2023/04/01 11:41:23;;;;;;;9.32;5.93;;;;;;;10.25;100.00;100025.22;5190323;28;20034;-81
2023/04/01 11:44:27;;;;;;;9.55;6.05;;;;;;;10.29;100.00;100033.69;5202548;28;20028;-81
2023/04/01 11:47:35;;;;;;;9.27;6.22;;;;;;;10.24;100.00;100033.41;5183643;28;20068;-81
2023/04/01 11:50:25;;;;;;;8.30;5.90;;;;;;;10.22;100.00;100046.97;5187591;28;20037;-81
2023/04/01 11:53:25;;;;;;;8.68;6.07;;;;;;;10.15;100.00;100050.59;5188179;28;20033;-81
2023/04/01 11:56:33;;;;;;;10.35;5.47;;;;;;;10.04;100.00;100044.66;5196840;28;20797;-81
2023/04/01 11:59:29;;;;;;;8.35;5.13;;;;;;;9.99;100.00;100055.09;5198926;28;20069;-80
2023/04/01 12:02:16;;;;;;;7.97;5.13;;;;;;;9.82;100.00;100053.56;5201727;28;20032;-80
2023/04/01 12:05:14;;;;;;;9.27;5.55;;;;;;;9.73;100.00;100060.00;5200138;28;20033;-80
2023/04/01 12:08:10;;;;;;;9.52;6.88;;;;;;;9.70;100.00;100057.69;5190232;28;20017;-80
2023/04/01 12:10:58;;;;;;;13.05;8.15;;;;;;;9.70;100.00;100071.91;5193521;28;20079;-80
2023/04/01 12:13:35;;;;;;;12.65;8.23;;;;;;;9.71;100.00;100075.41;5200487;28;20040;-80
2023/04/01 12:16:06;;;;;;;16.65;9.07;;;;;;;9.82;100.00;100080.34;5200101;28;20045;-80
2023/04/01 12:18:41;;;;;;;11.20;7.28;;;;;;;9.82;100.00;100080.34;5194261;28;20053;-81
2023/04/01 12:21:30;;;;;;;;;;;;;;;9.77;100.00;100080.88;5201505;28;20033;-81
2023/04/01 12:24:33;;;;;;;12.05;7.50;;;;;;;9.77;100.00;100085.41;5200875;28;19913;-81
2023/04/01 12:27:38;;;;;;;13.18;5.82;;;;;;;9.71;100.00;100086.97;5189386;28;20099;-80
2023/04/01 12:30:28;;;;;;;7.75;4.60;;;;;;;9.71;100.00;100091.50;5188299;28;20044;-80
2023/04/01 12:33:32;;;;;;;6.10;3.47;;;;;;;9.76;100.00;100092.63;5202709;28;20041;-81
2023/04/01 12:36:22;;;;;;;3.78;2.60;;;;;;;9.88;100.00;100095.69;5201621;28;20073;-80
2023/04/01 12:39:22;;;;;;;3.65;2.47;;;;;;;10.24;100.00;100095.94;5207912;28;20028;-80